createdAt,value
2022-08-23T00:00:32.871Z,63.84
2022-08-23T00:01:32.912Z,63.64
2022-08-23T00:02:33.043Z,63.24
2022-08-23T00:03:32.796Z,63.34
2022-08-23T00:04:34.963Z,63.84
2022-08-23T00:05:32.772Z,63.95
2022-08-23T00:06:32.805Z,64.15
2022-08-23T00:07:37.641Z,64.34
2022-08-23T00:08:33.745Z,63.84
2022-08-23T00:09:32.782Z,63.54
2022-08-23T00:10:32.775Z,63.54
2022-08-23T00:11:32.675Z,63.75
2022-08-23T00:12:32.711Z,63.64
2022-08-23T00:13:47.787Z,64.34
2022-08-23T00:14:33.688Z,64.37
2022-08-23T00:15:32.748Z,63.64
2022-08-23T00:16:32.685Z,64.28
2022-08-23T00:17:34.113Z,64.58
2022-08-23T00:18:32.637Z,63.98
2022-08-23T00:19:32.681Z,63.78
2022-08-23T00:20:32.602Z,64.37
2022-08-23T00:21:32.633Z,63.67
2022-08-23T00:22:32.583Z,64.37
2022-08-23T00:23:32.531Z,64.07
2022-08-23T00:24:32.564Z,64.07
2022-08-23T00:25:33.548Z,64.58
2022-08-23T00:26:32.614Z,65.28
2022-08-23T00:27:32.494Z,65.38
2022-08-23T00:28:32.502Z,64.78
2022-08-23T00:29:32.444Z,64.48
2022-08-23T00:30:32.525Z,64.71
2022-08-23T00:31:32.456Z,65.11
2022-08-23T00:32:32.470Z,65.11
2022-08-23T00:33:32.453Z,64.81
2022-08-23T00:34:32.481Z,64.81
2022-08-23T00:35:32.399Z,65.61
2022-08-23T00:36:32.388Z,65.01
2022-08-23T00:37:32.403Z,65.01
2022-08-23T00:38:35.117Z,65.01
2022-08-23T00:39:32.325Z,65.21
2022-08-23T00:40:32.354Z,65.21
2022-08-23T00:41:32.365Z,64.91
2022-08-23T00:42:32.328Z,65.11
2022-08-23T00:43:32.272Z,64.91
2022-08-23T00:44:32.303Z,64.81
2022-08-23T00:45:32.252Z,65.01
2022-08-23T00:46:32.315Z,65.21
2022-08-23T00:47:32.224Z,65.01
2022-08-23T00:48:32.313Z,65.01
2022-08-23T00:49:32.207Z,65.01
2022-08-23T00:50:32.177Z,65.21
2022-08-23T00:51:32.237Z,64.81
2022-08-23T00:52:33.195Z,65.01
2022-08-23T00:53:32.178Z,65.21
2022-08-23T00:54:32.221Z,65.21
2022-08-23T00:55:32.122Z,65.21
2022-08-23T00:56:32.115Z,65.91
2022-08-23T00:57:32.109Z,65.41
2022-08-23T00:58:32.081Z,65.21
2022-08-23T00:59:32.115Z,65.51
2022-08-23T01:00:32.127Z,65.71
2022-08-23T01:01:32.137Z,65.61
2022-08-23T01:02:32.095Z,65.91
2022-08-23T01:03:38.683Z,66.01
2022-08-23T01:04:33.047Z,65.91
2022-08-23T01:05:32.019Z,65.81
2022-08-23T01:06:32.038Z,66.11
2022-08-23T01:07:32.004Z,66.11
2022-08-23T01:08:32.006Z,66.21
2022-08-23T01:09:31.936Z,66.01
2022-08-23T01:10:31.961Z,66.21
2022-08-23T01:11:31.916Z,65.91
2022-08-23T01:12:32.535Z,66.24
2022-08-23T01:13:31.931Z,66.24
2022-08-23T01:14:32.870Z,66.55
2022-08-23T01:15:31.869Z,66.35
2022-08-23T01:16:31.892Z,66.14
2022-08-23T01:17:31.895Z,66.64
2022-08-23T01:18:31.816Z,66.14
2022-08-23T01:19:32.007Z,66.05
2022-08-23T01:20:31.862Z,66.35
2022-08-23T01:21:31.789Z,66.24
2022-08-23T01:22:31.775Z,66.24
2022-08-23T01:23:31.757Z,66.85
2022-08-23T01:25:05.708Z,66.85
2022-08-23T01:25:32.742Z,66.44
2022-08-23T01:26:31.737Z,66.64
2022-08-23T01:27:32.219Z,66.24
2022-08-23T01:28:31.676Z,66.35
2022-08-23T01:29:31.670Z,66.35
2022-08-23T01:30:31.724Z,66.14
2022-08-23T01:31:31.686Z,66.35
2022-08-23T01:32:31.639Z,66.44
2022-08-23T01:33:31.658Z,66.24
2022-08-23T01:34:32.393Z,66.47
2022-08-23T01:35:31.620Z,65.97
2022-08-23T01:36:31.677Z,66.17
2022-08-23T01:37:31.606Z,65.97
2022-08-23T01:38:32.893Z,65.77
2022-08-23T01:39:31.560Z,66.08
2022-08-23T01:40:31.548Z,66.38
2022-08-23T01:41:31.586Z,66.28
2022-08-23T01:42:31.545Z,66.28
2022-08-23T01:43:31.494Z,65.97
2022-08-23T01:44:31.500Z,65.57
2022-08-23T01:45:31.472Z,65.77
2022-08-23T01:46:31.567Z,66.38
2022-08-23T01:47:31.441Z,66.17
2022-08-23T01:48:31.443Z,65.97
2022-08-23T01:49:31.426Z,66.38
2022-08-23T01:50:31.494Z,66.58
2022-08-23T01:51:31.548Z,66.08
2022-08-23T01:52:31.380Z,66.08
2022-08-23T01:53:31.376Z,66.17
2022-08-23T01:54:31.372Z,65.67
2022-08-23T01:55:31.354Z,65.77
2022-08-23T01:56:38.973Z,65.97
2022-08-23T01:57:32.578Z,66.58
2022-08-23T01:58:31.348Z,66.17
2022-08-23T01:59:31.367Z,66.00
2022-08-23T02:00:31.256Z,65.80
2022-08-23T02:01:31.339Z,66.51
2022-08-23T02:02:31.265Z,66.31
2022-08-23T02:03:31.246Z,65.80
2022-08-23T02:04:31.238Z,66.51
2022-08-23T02:05:31.270Z,66.31
2022-08-23T02:06:31.286Z,66.61
2022-08-23T02:07:31.200Z,66.20
2022-08-23T02:08:31.165Z,66.41
2022-08-23T02:09:31.189Z,66.71
2022-08-23T02:10:31.187Z,66.61
2022-08-23T02:11:31.120Z,66.51
2022-08-23T02:12:31.148Z,66.31
2022-08-23T02:13:31.102Z,66.11
2022-08-23T02:14:31.117Z,66.31
2022-08-23T02:15:31.067Z,66.41
2022-08-23T02:16:31.057Z,67.21
2022-08-23T02:17:31.079Z,67.21
2022-08-23T02:18:31.033Z,68.05
2022-08-23T02:19:31.118Z,67.35
2022-08-23T02:20:31.019Z,67.74
2022-08-23T02:21:31.026Z,66.94
2022-08-23T02:22:30.991Z,67.74
2022-08-23T02:23:30.979Z,67.24
2022-08-23T02:24:30.990Z,67.85
2022-08-23T02:25:31.011Z,67.65
2022-08-23T02:26:31.349Z,67.85
2022-08-23T02:27:30.960Z,68.15
2022-08-23T02:28:30.953Z,67.14
2022-08-23T02:29:30.973Z,68.25
2022-08-23T02:30:30.910Z,67.85
2022-08-23T02:31:30.929Z,68.45
2022-08-23T02:32:30.878Z,68.35
2022-08-23T02:33:31.172Z,67.55
2022-08-23T02:35:40.951Z,67.47
2022-08-23T02:36:40.553Z,68.38
2022-08-23T02:37:40.553Z,68.48
2022-08-23T02:38:40.486Z,68.68
2022-08-23T02:39:40.483Z,68.38
2022-08-23T02:40:40.647Z,68.38
2022-08-23T02:41:40.370Z,68.28
2022-08-23T02:42:40.331Z,68.78
2022-08-23T02:43:41.124Z,68.59
2022-08-23T02:44:40.361Z,68.48
2022-08-23T02:45:40.378Z,68.98
2022-08-23T02:46:40.338Z,68.98
2022-08-23T02:47:40.344Z,69.09
2022-08-23T02:48:40.257Z,69.18
2022-08-23T02:49:40.309Z,68.88
2022-08-23T02:50:40.221Z,69.02
2022-08-23T02:51:40.255Z,68.48
2022-08-23T02:52:40.219Z,68.18
2022-08-23T02:53:40.226Z,68.82
2022-08-23T02:54:40.220Z,68.91
2022-08-23T02:55:40.193Z,68.82
2022-08-23T02:56:40.142Z,69.12
2022-08-23T02:57:40.233Z,68.62
2022-08-23T02:58:40.119Z,69.02
2022-08-23T02:59:41.138Z,69.12
2022-08-23T03:00:40.120Z,69.62
2022-08-23T03:01:40.097Z,69.62
2022-08-23T03:02:40.185Z,69.82
2022-08-23T03:03:40.050Z,68.91
2022-08-23T03:04:40.040Z,69.32
2022-08-23T03:05:40.048Z,69.42
2022-08-23T03:06:40.022Z,69.12
2022-08-23T03:07:40.057Z,69.32
2022-08-23T03:08:40.013Z,69.32
2022-08-23T03:09:39.979Z,69.35
2022-08-23T03:10:39.978Z,69.65
2022-08-23T03:11:39.960Z,69.45
2022-08-23T03:12:39.961Z,68.95
2022-08-23T03:13:40.026Z,68.55
2022-08-23T03:14:39.900Z,68.24
2022-08-23T03:15:39.919Z,69.05
2022-08-23T03:16:39.930Z,69.05
2022-08-23T03:17:39.918Z,69.05
2022-08-23T03:18:39.880Z,69.45
2022-08-23T03:19:39.849Z,69.45
2022-08-23T03:20:39.840Z,68.95
2022-08-23T03:21:39.824Z,68.95
2022-08-23T03:22:39.811Z,69.15
2022-08-23T03:23:40.809Z,68.75
2022-08-23T03:24:39.779Z,69.25
2022-08-23T03:25:39.774Z,69.25
2022-08-23T03:26:39.737Z,69.15
2022-08-23T03:27:45.007Z,69.65
2022-08-23T03:28:40.783Z,68.55
2022-08-23T03:29:39.710Z,69.65
2022-08-23T03:30:39.693Z,68.85
2022-08-23T03:31:39.592Z,69.25
2022-08-23T03:32:39.580Z,69.56
2022-08-23T03:33:40.563Z,69.35
2022-08-23T03:34:39.553Z,69.25
2022-08-23T03:35:39.552Z,69.25
2022-08-23T03:36:39.538Z,69.76
2022-08-23T03:37:41.461Z,70.06
2022-08-23T03:38:39.507Z,69.35
2022-08-23T03:39:39.582Z,69.15
2022-08-23T03:40:39.477Z,69.38
2022-08-23T03:41:39.481Z,69.49
2022-08-23T03:42:39.533Z,69.89
2022-08-23T03:43:39.440Z,69.18
2022-08-23T03:44:39.451Z,69.18
2022-08-23T03:45:39.453Z,69.29
2022-08-23T03:46:39.394Z,69.18
2022-08-23T03:47:39.396Z,68.78
2022-08-23T03:48:39.393Z,69.18
2022-08-23T03:49:39.417Z,68.48
2022-08-23T03:50:39.371Z,69.18
2022-08-23T03:51:39.321Z,69.69
2022-08-23T03:52:39.301Z,68.58
2022-08-23T03:53:39.363Z,68.58
2022-08-23T03:54:39.320Z,68.98
2022-08-23T03:55:42.316Z,69.09
2022-08-23T03:56:39.278Z,69.18
2022-08-23T03:57:39.320Z,68.88
2022-08-23T03:58:39.244Z,68.98
2022-08-23T03:59:39.277Z,68.88
2022-08-23T04:00:39.262Z,69.49
2022-08-23T04:01:39.278Z,68.98
2022-08-23T04:02:39.193Z,69.09
2022-08-23T04:03:39.203Z,68.78
2022-08-23T04:04:39.186Z,68.98
2022-08-23T04:05:39.184Z,68.68
2022-08-23T04:06:39.128Z,69.29
2022-08-23T04:07:39.140Z,68.78
2022-08-23T04:08:39.112Z,68.98
2022-08-23T04:09:39.127Z,69.49
2022-08-23T04:10:39.175Z,69.38
2022-08-23T04:11:39.081Z,68.78
2022-08-23T04:12:39.030Z,69.59
2022-08-23T04:13:39.059Z,69.42
2022-08-23T04:14:39.041Z,69.01
2022-08-23T04:15:39.012Z,69.12
2022-08-23T04:16:38.985Z,69.21
2022-08-23T04:17:39.011Z,69.01
2022-08-23T04:18:38.982Z,69.42
2022-08-23T04:19:38.970Z,68.61
2022-08-23T04:20:38.951Z,69.62
2022-08-23T04:21:38.950Z,69.52
2022-08-23T04:22:39.621Z,69.72
2022-08-23T04:23:38.972Z,69.42
2022-08-23T04:24:38.922Z,69.72
2022-08-23T04:25:38.907Z,69.21
2022-08-23T04:26:38.851Z,69.72
2022-08-23T04:27:38.946Z,69.72
2022-08-23T04:28:38.841Z,69.92
2022-08-23T04:29:38.943Z,69.82
2022-08-23T04:30:38.833Z,70.22
2022-08-23T04:31:38.846Z,70.32
2022-08-23T04:32:38.833Z,69.72
2022-08-23T04:33:40.172Z,68.71
2022-08-23T04:34:38.760Z,69.92
2022-08-23T04:35:38.796Z,70.22
2022-08-23T04:36:38.743Z,69.82
2022-08-23T04:37:38.710Z,69.42
2022-08-23T04:38:38.741Z,69.42
2022-08-23T04:39:38.738Z,69.12
2022-08-23T04:40:38.682Z,68.71
2022-08-23T04:41:38.693Z,68.51
2022-08-23T04:42:38.717Z,69.32
2022-08-23T04:43:38.703Z,68.91
2022-08-23T04:44:38.680Z,69.21
2022-08-23T04:45:38.635Z,69.21
2022-08-23T04:46:38.591Z,69.21
2022-08-23T04:47:38.630Z,68.91
2022-08-23T04:48:38.604Z,68.71
2022-08-23T04:49:38.642Z,68.51
2022-08-23T04:50:38.612Z,68.81
2022-08-23T04:51:38.623Z,69.42
2022-08-23T04:52:38.606Z,69.52
2022-08-23T04:53:38.549Z,69.21
2022-08-23T04:54:38.534Z,69.82
2022-08-23T04:55:38.481Z,69.52
2022-08-23T04:56:38.539Z,69.82
2022-08-23T04:57:38.470Z,70.12
2022-08-23T04:58:38.470Z,70.62
2022-08-23T04:59:38.456Z,70.12
2022-08-23T05:00:38.447Z,69.92
2022-08-23T05:01:38.453Z,70.02
2022-08-23T05:02:38.412Z,70.62
2022-08-23T05:03:38.399Z,69.82
2022-08-23T05:04:38.361Z,69.12
2022-08-23T05:05:38.410Z,69.62
2022-08-23T05:06:38.359Z,69.62
2022-08-23T05:07:42.600Z,69.12
2022-08-23T05:08:38.413Z,69.52
2022-08-23T05:09:38.381Z,68.81
2022-08-23T05:10:38.281Z,68.51
2022-08-23T05:11:38.349Z,68.81
2022-08-23T05:12:38.361Z,69.01
2022-08-23T05:13:38.319Z,69.62
2022-08-23T05:14:38.228Z,69.32
2022-08-23T05:15:38.229Z,69.72
2022-08-23T05:16:38.230Z,70.12
2022-08-23T05:17:38.234Z,69.12
2022-08-23T05:18:38.183Z,69.72
2022-08-23T05:19:39.450Z,69.01
2022-08-23T05:20:39.161Z,68.41
2022-08-23T05:21:38.174Z,68.81
2022-08-23T05:22:38.182Z,68.41
2022-08-23T05:23:38.151Z,68.71
2022-08-23T05:24:38.167Z,68.31
2022-08-23T05:25:38.098Z,68.81
2022-08-23T05:26:38.062Z,68.21
2022-08-23T05:27:38.122Z,68.41
2022-08-23T05:28:38.114Z,68.31
2022-08-23T05:29:38.070Z,69.12
2022-08-23T05:30:38.031Z,68.71
2022-08-23T05:31:38.045Z,68.28
2022-08-23T05:32:37.991Z,68.18
2022-08-23T05:33:38.066Z,68.18
2022-08-23T05:34:37.968Z,68.48
2022-08-23T05:35:37.966Z,68.58
2022-08-23T05:36:37.971Z,68.48
2022-08-23T05:37:38.940Z,68.38
2022-08-23T05:38:38.072Z,68.08
2022-08-23T05:39:37.923Z,68.28
2022-08-23T05:40:37.900Z,68.28
2022-08-23T05:41:38.675Z,68.48
2022-08-23T05:42:37.871Z,68.28
2022-08-23T05:43:37.962Z,68.28
2022-08-23T05:44:37.845Z,68.28
2022-08-23T05:45:37.903Z,67.97
2022-08-23T05:46:37.811Z,68.38
2022-08-23T05:47:37.839Z,68.28
2022-08-23T05:48:37.810Z,67.77
2022-08-23T05:49:37.789Z,68.28
2022-08-23T05:50:37.784Z,67.94
2022-08-23T05:51:37.751Z,67.94
2022-08-23T05:52:37.750Z,67.74
2022-08-23T05:53:37.760Z,67.84
2022-08-23T05:54:37.734Z,68.04
2022-08-23T05:55:37.729Z,68.15
2022-08-23T05:56:37.705Z,68.04
2022-08-23T05:57:37.704Z,67.64
2022-08-23T05:58:37.658Z,67.54
2022-08-23T05:59:37.671Z,67.54
2022-08-23T06:00:40.378Z,67.54
2022-08-23T06:01:37.664Z,67.24
2022-08-23T06:02:37.622Z,67.54
2022-08-23T06:03:37.608Z,67.41
2022-08-23T06:04:37.640Z,66.80
2022-08-23T06:05:37.581Z,66.71
2022-08-23T06:06:37.862Z,66.71
2022-08-23T06:07:37.561Z,66.71
2022-08-23T06:08:37.562Z,66.50
2022-08-23T06:09:37.560Z,66.40
2022-08-23T06:10:42.052Z,66.30
2022-08-23T06:11:37.527Z,66.07
2022-08-23T06:12:37.491Z,65.97
2022-08-23T06:13:37.500Z,65.97
2022-08-23T06:14:37.517Z,66.17
2022-08-23T06:15:37.441Z,66.17
2022-08-23T06:16:37.400Z,66.17
2022-08-23T06:17:37.414Z,65.97
2022-08-23T06:18:37.411Z,65.97
2022-08-23T06:19:37.419Z,65.97
2022-08-23T06:20:37.420Z,65.67
2022-08-23T06:21:37.391Z,65.33
2022-08-23T06:22:37.361Z,65.33
2022-08-23T06:23:37.388Z,65.33
2022-08-23T06:24:37.328Z,65.44
2022-08-23T06:25:38.003Z,65.53
2022-08-23T06:26:37.422Z,65.44
2022-08-23T06:27:37.328Z,65.23
2022-08-23T06:28:37.538Z,64.90
2022-08-23T06:29:38.282Z,64.90
2022-08-23T06:30:39.730Z,64.90
2022-08-23T06:31:37.370Z,64.20
2022-08-23T06:32:37.332Z,64.20
2022-08-23T06:33:37.492Z,63.96
2022-08-23T06:34:37.674Z,63.87
2022-08-23T06:35:38.794Z,63.96
2022-08-23T06:36:37.288Z,63.93
2022-08-23T06:37:37.221Z,63.93
2022-08-23T06:38:37.256Z,63.73
2022-08-23T06:39:37.797Z,63.64
2022-08-23T06:40:37.179Z,63.53
2022-08-23T06:41:37.269Z,63.53
2022-08-23T06:42:38.830Z,63.64
2022-08-23T06:43:37.249Z,63.13
2022-08-23T06:44:37.169Z,63.13
2022-08-23T06:45:37.072Z,63.13
2022-08-23T06:46:37.091Z,62.93
2022-08-23T06:47:37.142Z,62.53
2022-08-23T06:48:37.252Z,62.60
2022-08-23T06:49:37.579Z,62.10
2022-08-23T06:50:37.142Z,61.70
2022-08-23T06:51:37.326Z,61.50
2022-08-23T06:52:37.041Z,61.80
2022-08-23T06:53:38.117Z,62.20
2022-08-23T06:54:37.121Z,62.30
2022-08-23T06:55:37.058Z,62.30
2022-08-23T06:56:36.953Z,61.80
2022-08-23T06:57:36.935Z,61.90
2022-08-23T06:58:36.927Z,61.67
2022-08-23T06:59:36.915Z,61.57
2022-08-23T07:00:36.915Z,61.47
2022-08-23T07:01:46.008Z,61.47
2022-08-23T07:02:37.864Z,61.57
2022-08-23T07:03:36.885Z,61.77
2022-08-23T07:04:36.861Z,61.67
2022-08-23T07:05:36.825Z,61.57
2022-08-23T07:06:36.804Z,61.07
2022-08-23T07:07:41.276Z,61.07
2022-08-23T07:08:37.855Z,61.24
2022-08-23T07:09:36.803Z,61.24
2022-08-23T07:10:36.763Z,61.14
2022-08-23T07:11:36.761Z,61.24
2022-08-23T07:12:36.731Z,61.24
2022-08-23T07:13:37.652Z,61.34
2022-08-23T07:14:36.773Z,60.84
2022-08-23T07:15:36.732Z,60.24
2022-08-23T07:16:36.772Z,60.53
2022-08-23T07:17:36.630Z,60.53
2022-08-23T07:18:36.708Z,60.61
2022-08-23T07:19:36.623Z,60.81
2022-08-23T07:20:36.665Z,59.70
2022-08-23T07:21:36.601Z,59.70
2022-08-23T07:22:36.616Z,59.81
2022-08-23T07:23:36.542Z,59.91
2022-08-23T07:24:36.597Z,59.48
2022-08-23T07:25:36.764Z,59.08
2022-08-23T07:26:36.530Z,59.08
2022-08-23T07:27:36.511Z,59.28
2022-08-23T07:28:36.548Z,59.68
2022-08-23T07:29:36.618Z,58.87
2022-08-23T07:30:36.481Z,58.07
2022-08-23T07:31:36.588Z,58.65
2022-08-23T07:32:36.518Z,57.95
2022-08-23T07:33:36.424Z,57.75
2022-08-23T07:34:36.445Z,57.45
2022-08-23T07:35:40.221Z,57.65
2022-08-23T07:36:36.401Z,57.75
2022-08-23T07:37:36.383Z,57.55
2022-08-23T07:38:36.493Z,57.65
2022-08-23T07:39:36.370Z,57.92
2022-08-23T07:40:39.045Z,57.82
2022-08-23T07:41:36.492Z,57.92
2022-08-23T07:42:36.424Z,57.82
2022-08-23T07:43:36.346Z,57.62
2022-08-23T07:44:36.353Z,57.09
2022-08-23T07:45:36.345Z,56.57
2022-08-23T07:46:36.334Z,55.77
2022-08-23T07:47:36.812Z,56.27
2022-08-23T07:48:53.547Z,56.27
2022-08-23T07:49:37.458Z,56.70
2022-08-23T07:50:36.423Z,56.49
2022-08-23T07:51:36.379Z,56.39
2022-08-23T07:52:39.231Z,56.57
2022-08-23T07:55:07.733Z,56.07
2022-08-23T07:56:07.357Z,55.97
2022-08-23T07:57:05.620Z,55.87
2022-08-23T07:58:05.484Z,55.87
2022-08-23T08:02:06.409Z,56.37
2022-08-23T08:02:29.609Z,56.27
2022-08-23T08:03:25.935Z,56.44
2022-08-23T08:04:26.882Z,56.24
2022-08-23T08:05:26.165Z,56.24
2022-08-23T08:06:26.650Z,55.94
2022-08-23T08:07:25.746Z,55.64
2022-08-23T08:08:25.506Z,55.62
2022-08-23T08:09:26.275Z,55.62
2022-08-23T08:10:25.923Z,55.21
2022-08-23T08:11:26.529Z,55.11
2022-08-23T08:12:26.663Z,55.32
2022-08-23T08:13:26.030Z,55.71
2022-08-23T08:14:25.490Z,55.51
2022-08-23T08:15:27.942Z,54.61
2022-08-23T08:16:28.112Z,54.71
2022-08-23T08:17:27.561Z,54.71
2022-08-23T08:18:26.099Z,54.59
2022-08-23T08:19:25.795Z,54.79
2022-08-23T08:20:26.992Z,54.89
2022-08-23T08:21:26.725Z,55.09
2022-08-23T08:22:25.384Z,53.29
2022-08-23T08:23:25.382Z,53.19
2022-08-23T08:24:25.342Z,52.89
2022-08-23T08:25:25.444Z,52.49
2022-08-23T08:26:25.880Z,52.29
2022-08-23T08:27:25.537Z,51.97
2022-08-23T08:28:25.283Z,50.97
2022-08-23T08:29:25.437Z,51.05
2022-08-23T08:30:26.226Z,51.35
2022-08-23T08:31:25.442Z,50.95
2022-08-23T08:32:25.374Z,50.65
2022-08-23T08:33:25.621Z,50.35
2022-08-23T08:34:26.377Z,50.15
2022-08-23T08:35:25.383Z,50.85
2022-08-23T08:36:26.033Z,50.15
2022-08-23T08:37:27.785Z,50.95
2022-08-23T08:38:48.209Z,50.74
2022-08-23T08:39:25.310Z,50.65
2022-08-23T08:40:25.331Z,50.95
2022-08-23T08:41:25.976Z,51.54
2022-08-23T08:42:25.124Z,52.04
2022-08-23T08:43:26.518Z,52.04
2022-08-23T08:44:26.181Z,51.15
2022-08-23T08:45:29.047Z,51.25
2022-08-23T08:46:26.900Z,51.65
2022-08-23T08:47:25.015Z,50.65
2022-08-23T08:48:25.793Z,50.62
2022-08-23T08:49:25.098Z,50.62
2022-08-23T08:50:25.113Z,50.92
2022-08-23T08:51:25.038Z,51.22
2022-08-23T08:52:26.055Z,50.82
2022-08-23T08:53:25.179Z,50.40
2022-08-23T08:54:25.105Z,49.80
2022-08-23T08:55:26.863Z,50.00
2022-08-23T08:56:32.441Z,49.51
2022-08-23T08:57:27.754Z,49.90
2022-08-23T08:58:25.858Z,50.00
2022-08-23T08:59:25.024Z,50.00
2022-08-23T09:00:24.986Z,50.30
2022-08-23T09:01:24.975Z,50.60
2022-08-23T09:02:32.484Z,49.98
2022-08-23T09:03:26.051Z,49.66
2022-08-23T09:04:24.916Z,48.94
2022-08-23T09:05:25.422Z,49.21
2022-08-23T09:06:24.937Z,48.91
2022-08-23T09:07:29.180Z,47.99
2022-08-23T09:08:25.917Z,47.77
2022-08-23T09:09:24.850Z,47.25
2022-08-23T09:10:26.380Z,47.55
2022-08-23T09:11:24.881Z,46.86
2022-08-23T09:12:26.417Z,47.05
2022-08-23T09:13:24.895Z,47.38
2022-08-23T09:14:24.689Z,47.77
2022-08-23T09:15:26.024Z,48.27
2022-08-23T09:16:24.809Z,48.10
2022-08-23T09:17:25.218Z,48.39
2022-08-23T09:18:26.585Z,48.32
2022-08-23T09:19:25.113Z,48.32
2022-08-23T09:20:24.980Z,47.82
2022-08-23T09:21:28.406Z,48.11
2022-08-23T09:22:45.853Z,48.22
2022-08-23T09:23:24.573Z,48.41
2022-08-23T09:24:24.719Z,48.71
2022-08-23T09:25:24.941Z,48.91
2022-08-23T09:26:24.741Z,49.11
2022-08-23T09:27:28.569Z,49.01
2022-08-23T09:28:26.630Z,48.91
2022-08-23T09:29:26.251Z,48.61
2022-08-23T09:30:24.571Z,48.39
2022-08-23T09:31:25.637Z,48.69
2022-08-23T09:32:25.195Z,48.61
2022-08-23T09:33:26.763Z,48.22
2022-08-23T09:34:26.898Z,48.41
2022-08-23T09:35:25.037Z,48.61
2022-08-23T09:36:24.967Z,48.79
2022-08-23T09:37:28.414Z,48.69
2022-08-23T09:38:24.587Z,47.89
2022-08-23T09:39:30.806Z,47.99
2022-08-23T09:40:27.987Z,48.69
2022-08-23T09:41:32.013Z,48.49
2022-08-23T09:42:37.457Z,48.29
2022-08-23T09:43:29.813Z,48.39
2022-08-23T09:44:26.531Z,47.80
2022-08-23T09:45:46.511Z,47.70
2022-08-23T09:46:27.254Z,47.40
2022-08-23T09:47:26.295Z,47.50
2022-08-23T09:48:31.075Z,47.40
2022-08-23T09:49:24.525Z,47.57
2022-08-23T09:50:31.181Z,47.57
2022-08-23T09:51:32.727Z,47.28
2022-08-23T09:52:24.744Z,47.17
2022-08-23T09:53:41.388Z,46.78
2022-08-23T09:54:48.258Z,46.48
2022-08-23T09:55:25.485Z,46.16
2022-08-23T09:56:29.209Z,46.36
2022-08-23T09:57:24.405Z,46.86
2022-08-23T09:58:27.665Z,46.95
2022-08-23T09:59:27.342Z,46.16
2022-08-23T10:00:27.301Z,46.06
2022-08-23T10:01:25.561Z,45.94
2022-08-23T10:02:30.686Z,46.04
2022-08-23T10:03:25.368Z,46.14
2022-08-23T10:04:24.300Z,45.74
2022-08-23T10:05:28.892Z,46.53
2022-08-23T10:06:31.198Z,45.84
2022-08-23T10:07:29.008Z,45.84
2022-08-23T10:08:29.677Z,46.04
2022-08-23T10:09:28.936Z,46.53
2022-08-23T10:10:29.717Z,46.53
2022-08-23T10:12:01.969Z,47.13
2022-08-23T10:12:23.982Z,46.83
2022-08-23T10:13:24.166Z,46.53
2022-08-23T10:14:35.358Z,46.22
2022-08-23T10:15:25.054Z,45.92
2022-08-23T10:16:24.006Z,46.12
2022-08-23T10:17:25.143Z,46.12
2022-08-23T10:18:24.265Z,46.51
2022-08-23T10:19:26.187Z,46.31
2022-08-23T10:20:27.591Z,46.22
2022-08-23T10:21:25.149Z,46.51
2022-08-23T10:22:25.723Z,45.82
2022-08-23T10:23:26.394Z,46.31
2022-08-23T10:24:29.422Z,46.51
2022-08-23T10:25:25.673Z,46.59
2022-08-23T10:26:25.799Z,46.49
2022-08-23T10:27:24.070Z,46.59
2022-08-23T10:28:24.083Z,46.59
2022-08-23T10:29:28.366Z,46.39
2022-08-23T10:30:24.310Z,46.49
2022-08-23T10:31:25.822Z,46.09
2022-08-23T10:32:32.291Z,46.00
2022-08-23T10:33:23.738Z,46.30
2022-08-23T10:34:29.972Z,46.30
2022-08-23T10:35:35.521Z,45.90
2022-08-23T10:36:25.612Z,45.00
2022-08-23T10:37:26.373Z,45.40
2022-08-23T10:38:24.905Z,45.28
2022-08-23T10:39:27.036Z,44.78
2022-08-23T10:40:24.225Z,44.89
2022-08-23T10:41:24.713Z,44.59
2022-08-23T10:42:24.206Z,44.37
2022-08-23T10:43:23.893Z,44.46
2022-08-23T10:44:24.020Z,44.27
2022-08-23T10:45:24.004Z,43.28
2022-08-23T10:46:27.336Z,43.57
2022-08-23T10:47:26.200Z,43.67
2022-08-23T10:48:24.865Z,44.17
2022-08-23T10:49:25.762Z,43.97
2022-08-23T10:50:27.735Z,43.85
2022-08-23T10:51:31.945Z,43.46
2022-08-23T10:52:35.385Z,44.05
2022-08-23T10:53:30.103Z,43.55
2022-08-23T10:54:47.460Z,43.85
2022-08-23T10:55:25.920Z,42.96
2022-08-23T10:56:32.580Z,43.24
2022-08-23T10:57:30.770Z,42.54
2022-08-23T10:58:24.609Z,42.74
2022-08-23T10:59:25.537Z,42.74
2022-08-23T11:00:25.591Z,42.94
2022-08-23T11:01:27.629Z,43.04
2022-08-23T11:02:26.399Z,43.04
2022-08-23T11:03:29.084Z,42.35
2022-08-23T11:04:23.618Z,42.44
2022-08-23T11:05:27.259Z,42.94
2022-08-23T11:06:25.894Z,43.33
2022-08-23T11:07:24.561Z,42.94
2022-08-23T11:08:25.948Z,43.04
2022-08-23T11:09:25.890Z,43.13
2022-08-23T11:10:29.176Z,42.84
2022-08-23T11:11:27.873Z,43.04
2022-08-23T11:12:23.398Z,43.24
2022-08-23T11:13:23.497Z,43.33
2022-08-23T11:14:28.609Z,43.13
2022-08-23T11:15:23.519Z,43.24
2022-08-23T11:16:26.438Z,43.53
2022-08-23T11:17:23.227Z,44.02
2022-08-23T11:18:23.601Z,44.13
2022-08-23T11:19:26.472Z,43.33
2022-08-23T11:20:23.486Z,43.33
2022-08-23T11:21:38.674Z,43.53
2022-08-23T11:22:27.107Z,43.93
2022-08-23T11:23:28.961Z,43.33
2022-08-23T11:24:39.310Z,43.04
2022-08-23T11:25:28.936Z,43.04
2022-08-23T11:26:23.365Z,43.41
2022-08-23T11:27:28.401Z,43.91
2022-08-23T11:28:30.468Z,43.21
2022-08-23T11:29:33.428Z,43.21
2022-08-23T11:30:29.132Z,43.31
2022-08-23T11:31:37.643Z,43.41
2022-08-23T11:32:29.943Z,43.49
2022-08-23T11:33:31.015Z,42.21
2022-08-23T11:34:28.964Z,42.60
2022-08-23T11:36:36.041Z,41.79
2022-08-23T11:37:33.881Z,41.49
2022-08-23T11:38:34.185Z,41.00
2022-08-23T11:41:57.529Z,41.49
2022-08-23T11:42:58.945Z,41.49
2022-08-23T11:43:56.694Z,41.49
2022-08-23T11:44:56.821Z,41.59
2022-08-23T11:45:56.700Z,41.59
2022-08-23T11:46:56.756Z,41.49
2022-08-23T11:47:56.638Z,41.49
2022-08-23T11:48:56.683Z,41.30
2022-08-23T11:49:56.637Z,41.69
2022-08-23T11:50:58.212Z,40.61
2022-08-23T11:51:56.756Z,40.70
2022-08-23T11:52:56.616Z,41.00
2022-08-23T11:53:56.591Z,41.30
2022-08-23T11:54:56.612Z,41.20
2022-08-23T11:55:56.583Z,40.50
2022-08-23T11:56:56.581Z,40.41
2022-08-23T11:57:56.540Z,40.11
2022-08-23T11:58:56.523Z,40.50
2022-08-23T11:59:56.532Z,40.58
2022-08-23T12:00:56.715Z,40.61
2022-08-23T12:01:56.593Z,40.48
2022-08-23T12:02:56.603Z,40.98
2022-08-23T12:03:56.610Z,40.58
2022-08-23T12:04:56.484Z,40.78
2022-08-23T12:05:57.527Z,40.61
2022-08-23T12:06:56.487Z,40.01
2022-08-23T12:07:56.415Z,40.21
2022-08-23T12:08:56.419Z,40.50
2022-08-23T12:09:56.383Z,41.10
2022-08-23T12:10:56.766Z,41.39
2022-08-23T12:11:56.407Z,41.10
2022-08-23T12:13:15.664Z,40.80
2022-08-23T12:14:10.493Z,40.61
2022-08-23T12:15:10.108Z,40.41
2022-08-23T12:15:56.583Z,40.31
2022-08-23T12:16:57.967Z,40.41
2022-08-23T12:18:04.451Z,40.70
2022-08-23T12:18:56.536Z,40.29
2022-08-23T12:19:56.571Z,40.29
2022-08-23T12:20:57.191Z,40.29
2022-08-23T12:21:56.850Z,40.48
2022-08-23T12:22:57.821Z,40.29
2022-08-23T12:23:56.606Z,40.58
2022-08-23T12:24:56.392Z,40.58
2022-08-23T12:25:58.752Z,40.58
2022-08-23T12:26:56.366Z,39.79
2022-08-23T12:27:59.025Z,40.39
2022-08-23T12:28:57.258Z,40.39
2022-08-23T12:29:59.024Z,39.70
2022-08-23T12:30:58.035Z,39.30
2022-08-23T12:31:57.215Z,39.79
2022-08-23T12:32:56.638Z,39.70
2022-08-23T12:33:56.267Z,39.89
2022-08-23T12:36:33.627Z,40.69
2022-08-23T12:37:09.904Z,40.58
2022-08-23T12:38:13.216Z,40.58
2022-08-23T12:39:08.507Z,41.08
2022-08-23T12:40:08.071Z,40.69
2022-08-23T12:41:12.415Z,40.29
2022-08-23T12:42:07.728Z,40.19
2022-08-23T12:43:35.131Z,40.48
2022-08-23T12:44:10.109Z,40.58
2022-08-23T12:45:10.160Z,40.48
2022-08-23T12:46:07.171Z,40.78
2022-08-23T12:47:09.561Z,40.76
2022-08-23T12:48:11.346Z,39.68
2022-08-23T12:49:23.726Z,39.18
2022-08-23T12:50:07.528Z,39.28
2022-08-23T12:51:07.765Z,39.58
2022-08-23T12:52:08.622Z,39.65
2022-08-23T12:53:08.086Z,38.77
2022-08-23T12:54:09.177Z,38.28
2022-08-23T12:55:06.907Z,37.88
2022-08-23T12:56:10.356Z,38.37
2022-08-23T12:57:08.882Z,38.37
2022-08-23T12:58:07.771Z,38.37
2022-08-23T12:59:08.327Z,38.96
2022-08-23T13:00:16.947Z,38.57
2022-08-23T13:01:10.101Z,37.78
2022-08-23T13:02:07.227Z,38.28